sensor_id;sensor_type;location;lat;lon;timestamp;P1;durP1;ratioP1;P2;durP2;ratioP2
50872;SDS011;72604;40.088;18.346;2023-09-19T00:01:35;15.20;;;11.65;;
50872;SDS011;72604;40.088;18.346;2023-09-19T00:04:37;15.07;;;11.50;;
50872;SDS011;72604;40.088;18.346;2023-09-19T00:07:41;15.52;;;10.90;;
50872;SDS011;72604;40.088;18.346;2023-09-19T00:10:43;16.42;;;11.02;;
50872;SDS011;72604;40.088;18.346;2023-09-19T00:13:47;18.83;;;12.60;;
50872;SDS011;72604;40.088;18.346;2023-09-19T00:16:51;17.90;;;12.30;;
50872;SDS011;72604;40.088;18.346;2023-09-19T00:19:53;19.02;;;12.38;;
50872;SDS011;72604;40.088;18.346;2023-09-19T00:22:55;17.17;;;12.73;;
50872;SDS011;72604;40.088;18.346;2023-09-19T00:26:00;15.68;;;12.05;;
50872;SDS011;72604;40.088;18.346;2023-09-19T00:29:02;15.93;;;11.70;;
50872;SDS011;72604;40.088;18.346;2023-09-19T00:32:06;16.77;;;11.95;;
50872;SDS011;72604;40.088;18.346;2023-09-19T00:35:08;17.33;;;11.20;;
50872;SDS011;72604;40.088;18.346;2023-09-19T00:38:12;18.80;;;11.73;;
50872;SDS011;72604;40.088;18.346;2023-09-19T00:41:19;15.93;;;11.60;;
50872;SDS011;72604;40.088;18.346;2023-09-19T00:44:21;16.80;;;11.38;;
50872;SDS011;72604;40.088;18.346;2023-09-19T00:47:24;20.20;;;11.40;;
50872;SDS011;72604;40.088;18.346;2023-09-19T00:50:27;20.27;;;12.00;;
50872;SDS011;72604;40.088;18.346;2023-09-19T00:53:29;17.08;;;12.85;;
50872;SDS011;72604;40.088;18.346;2023-09-19T00:56:32;19.27;;;13.07;;
50872;SDS011;72604;40.088;18.346;2023-09-19T00:59:34;18.13;;;12.70;;
50872;SDS011;72604;40.088;18.346;2023-09-19T01:02:37;16.00;;;12.77;;
50872;SDS011;72604;40.088;18.346;2023-09-19T01:05:39;18.27;;;12.77;;
50872;SDS011;72604;40.088;18.346;2023-09-19T01:08:41;18.75;;;12.90;;
50872;SDS011;72604;40.088;18.346;2023-09-19T01:11:43;17.52;;;12.27;;
50872;SDS011;72604;40.088;18.346;2023-09-19T01:14:53;16.20;;;12.00;;
50872;SDS011;72604;40.088;18.346;2023-09-19T01:18:07;14.95;;;10.90;;
50872;SDS011;72604;40.088;18.346;2023-09-19T01:24:33;14.50;;;12.25;;
50872;SDS011;72604;40.088;18.346;2023-09-19T01:31:02;15.38;;;12.23;;
50872;SDS011;72604;40.088;18.346;2023-09-19T01:34:04;19.88;;;11.32;;
50872;SDS011;72604;40.088;18.346;2023-09-19T01:37:08;18.08;;;11.45;;
50872;SDS011;72604;40.088;18.346;2023-09-19T01:40:10;18.30;;;12.23;;
50872;SDS011;72604;40.088;18.346;2023-09-19T01:43:31;16.60;;;12.05;;
50872;SDS011;72604;40.088;18.346;2023-09-19T01:46:35;19.05;;;12.65;;
50872;SDS011;72604;40.088;18.346;2023-09-19T01:49:47;19.35;;;13.65;;
50872;SDS011;72604;40.088;18.346;2023-09-19T01:52:54;17.88;;;13.40;;
50872;SDS011;72604;40.088;18.346;2023-09-19T01:55:58;14.45;;;12.93;;
50872;SDS011;72604;40.088;18.346;2023-09-19T01:59:08;18.58;;;14.25;;
50872;SDS011;72604;40.088;18.346;2023-09-19T02:02:10;20.60;;;14.02;;
50872;SDS011;72604;40.088;18.346;2023-09-19T02:05:21;17.30;;;13.65;;
50872;SDS011;72604;40.088;18.346;2023-09-19T02:08:24;17.75;;;13.10;;
50872;SDS011;72604;40.088;18.346;2023-09-19T02:11:27;19.50;;;13.20;;
50872;SDS011;72604;40.088;18.346;2023-09-19T02:14:30;16.33;;;12.73;;
50872;SDS011;72604;40.088;18.346;2023-09-19T02:17:32;15.77;;;12.57;;
50872;SDS011;72604;40.088;18.346;2023-09-19T02:20:34;21.30;;;13.10;;
50872;SDS011;72604;40.088;18.346;2023-09-19T02:23:36;20.42;;;12.30;;
50872;SDS011;72604;40.088;18.346;2023-09-19T02:26:38;19.60;;;13.85;;
50872;SDS011;72604;40.088;18.346;2023-09-19T02:29:40;15.93;;;13.18;;
50872;SDS011;72604;40.088;18.346;2023-09-19T02:32:43;15.85;;;13.65;;
50872;SDS011;72604;40.088;18.346;2023-09-19T02:35:45;18.83;;;13.80;;
50872;SDS011;72604;40.088;18.346;2023-09-19T02:38:47;18.25;;;13.77;;
50872;SDS011;72604;40.088;18.346;2023-09-19T02:41:52;18.15;;;13.70;;
50872;SDS011;72604;40.088;18.346;2023-09-19T02:44:54;18.67;;;13.32;;
50872;SDS011;72604;40.088;18.346;2023-09-19T02:47:56;17.52;;;13.20;;
50872;SDS011;72604;40.088;18.346;2023-09-19T02:50:58;17.65;;;13.65;;
50872;SDS011;72604;40.088;18.346;2023-09-19T02:54:00;17.17;;;12.35;;
50872;SDS011;72604;40.088;18.346;2023-09-19T02:57:05;16.58;;;14.00;;
50872;SDS011;72604;40.088;18.346;2023-09-19T03:00:09;20.15;;;14.55;;
50872;SDS011;72604;40.088;18.346;2023-09-19T03:03:14;17.50;;;14.05;;
50872;SDS011;72604;40.088;18.346;2023-09-19T03:06:18;19.92;;;14.48;;
50872;SDS011;72604;40.088;18.346;2023-09-19T03:09:21;16.88;;;12.98;;
50872;SDS011;72604;40.088;18.346;2023-09-19T03:12:25;17.08;;;13.52;;
50872;SDS011;72604;40.088;18.346;2023-09-19T03:15:27;19.38;;;13.40;;
50872;SDS011;72604;40.088;18.346;2023-09-19T03:18:30;16.05;;;13.05;;
50872;SDS011;72604;40.088;18.346;2023-09-19T03:21:33;16.00;;;13.48;;
50872;SDS011;72604;40.088;18.346;2023-09-19T03:24:38;18.50;;;13.40;;
50872;SDS011;72604;40.088;18.346;2023-09-19T03:27:40;17.27;;;13.30;;
50872;SDS011;72604;40.088;18.346;2023-09-19T03:30:43;22.30;;;13.77;;
50872;SDS011;72604;40.088;18.346;2023-09-19T03:33:45;17.45;;;13.93;;
50872;SDS011;72604;40.088;18.346;2023-09-19T03:36:48;18.27;;;14.07;;
50872;SDS011;72604;40.088;18.346;2023-09-19T03:39:49;20.02;;;12.82;;
50872;SDS011;72604;40.088;18.346;2023-09-19T03:42:51;18.58;;;11.80;;
50872;SDS011;72604;40.088;18.346;2023-09-19T03:45:53;17.10;;;13.00;;
50872;SDS011;72604;40.088;18.346;2023-09-19T03:48:59;18.80;;;13.23;;
50872;SDS011;72604;40.088;18.346;2023-09-19T03:52:01;17.58;;;12.38;;
50872;SDS011;72604;40.088;18.346;2023-09-19T03:55:03;21.45;;;13.52;;
50872;SDS011;72604;40.088;18.346;2023-09-19T03:58:08;19.80;;;13.65;;
50872;SDS011;72604;40.088;18.346;2023-09-19T04:01:11;18.75;;;14.38;;
50872;SDS011;72604;40.088;18.346;2023-09-19T04:04:15;21.35;;;13.80;;
50872;SDS011;72604;40.088;18.346;2023-09-19T04:07:17;22.13;;;15.50;;
50872;SDS011;72604;40.088;18.346;2023-09-19T04:10:20;21.00;;;16.20;;
50872;SDS011;72604;40.088;18.346;2023-09-19T04:13:22;21.55;;;16.23;;
50872;SDS011;72604;40.088;18.346;2023-09-19T04:16:24;20.10;;;16.00;;
50872;SDS011;72604;40.088;18.346;2023-09-19T04:19:26;20.58;;;14.73;;
50872;SDS011;72604;40.088;18.346;2023-09-19T04:22:29;20.00;;;14.48;;
50872;SDS011;72604;40.088;18.346;2023-09-19T04:25:31;17.77;;;14.52;;
50872;SDS011;72604;40.088;18.346;2023-09-19T04:28:33;22.45;;;15.02;;
50872;SDS011;72604;40.088;18.346;2023-09-19T04:31:36;20.02;;;14.05;;
50872;SDS011;72604;40.088;18.346;2023-09-19T04:34:39;21.10;;;15.55;;
50872;SDS011;72604;40.088;18.346;2023-09-19T04:37:41;20.02;;;14.70;;
50872;SDS011;72604;40.088;18.346;2023-09-19T04:40:43;20.20;;;15.48;;
50872;SDS011;72604;40.088;18.346;2023-09-19T04:43:45;26.70;;;20.58;;
50872;SDS011;72604;40.088;18.346;2023-09-19T04:46:47;18.50;;;15.95;;
50872;SDS011;72604;40.088;18.346;2023-09-19T04:49:49;21.20;;;15.07;;
50872;SDS011;72604;40.088;18.346;2023-09-19T04:52:51;21.65;;;15.02;;
50872;SDS011;72604;40.088;18.346;2023-09-19T04:55:53;17.33;;;14.13;;
50872;SDS011;72604;40.088;18.346;2023-09-19T04:58:57;18.70;;;14.23;;
50872;SDS011;72604;40.088;18.346;2023-09-19T05:02:00;19.98;;;15.40;;
50872;SDS011;72604;40.088;18.346;2023-09-19T05:05:01;37.33;;;25.88;;
50872;SDS011;72604;40.088;18.346;2023-09-19T05:08:04;23.90;;;16.05;;
50872;SDS011;72604;40.088;18.346;2023-09-19T05:11:07;19.35;;;16.02;;
50872;SDS011;72604;40.088;18.346;2023-09-19T05:14:11;23.67;;;14.18;;
50872;SDS011;72604;40.088;18.346;2023-09-19T05:17:13;23.40;;;13.45;;
50872;SDS011;72604;40.088;18.346;2023-09-19T05:20:18;22.83;;;14.63;;
50872;SDS011;72604;40.088;18.346;2023-09-19T05:23:27;21.95;;;15.00;;
50872;SDS011;72604;40.088;18.346;2023-09-19T05:26:30;16.98;;;13.50;;
50872;SDS011;72604;40.088;18.346;2023-09-19T05:29:32;23.40;;;14.10;;
50872;SDS011;72604;40.088;18.346;2023-09-19T05:32:35;26.60;;;12.45;;
50872;SDS011;72604;40.088;18.346;2023-09-19T05:35:36;20.05;;;13.02;;
50872;SDS011;72604;40.088;18.346;2023-09-19T05:38:41;18.73;;;13.68;;
50872;SDS011;72604;40.088;18.346;2023-09-19T05:41:43;20.65;;;12.05;;
50872;SDS011;72604;40.088;18.346;2023-09-19T05:44:45;21.88;;;13.07;;
50872;SDS011;72604;40.088;18.346;2023-09-19T05:47:48;20.98;;;14.45;;
50872;SDS011;72604;40.088;18.346;2023-09-19T05:50:50;22.55;;;13.50;;
50872;SDS011;72604;40.088;18.346;2023-09-19T05:53:52;22.35;;;13.50;;
50872;SDS011;72604;40.088;18.346;2023-09-19T05:56:56;25.70;;;14.95;;
50872;SDS011;72604;40.088;18.346;2023-09-19T05:59:59;22.27;;;15.15;;
50872;SDS011;72604;40.088;18.346;2023-09-19T06:03:12;23.55;;;14.75;;
50872;SDS011;72604;40.088;18.346;2023-09-19T06:06:16;20.43;;;16.33;;
50872;SDS011;72604;40.088;18.346;2023-09-19T06:09:18;23.92;;;15.57;;
50872;SDS011;72604;40.088;18.346;2023-09-19T06:12:21;17.23;;;14.60;;
50872;SDS011;72604;40.088;18.346;2023-09-19T06:15:24;18.35;;;15.00;;
50872;SDS011;72604;40.088;18.346;2023-09-19T06:18:26;17.00;;;13.88;;
50872;SDS011;72604;40.088;18.346;2023-09-19T06:21:31;19.23;;;13.25;;
50872;SDS011;72604;40.088;18.346;2023-09-19T06:24:34;18.27;;;13.00;;
50872;SDS011;72604;40.088;18.346;2023-09-19T06:27:36;16.25;;;11.60;;
50872;SDS011;72604;40.088;18.346;2023-09-19T06:30:38;15.50;;;11.40;;
50872;SDS011;72604;40.088;18.346;2023-09-19T06:33:43;16.42;;;11.00;;
50872;SDS011;72604;40.088;18.346;2023-09-19T06:36:45;15.50;;;12.18;;
50872;SDS011;72604;40.088;18.346;2023-09-19T06:39:47;19.38;;;12.13;;
50872;SDS011;72604;40.088;18.346;2023-09-19T06:42:51;16.63;;;13.43;;
50872;SDS011;72604;40.088;18.346;2023-09-19T06:45:54;23.25;;;16.35;;
50872;SDS011;72604;40.088;18.346;2023-09-19T06:48:59;18.70;;;13.27;;
50872;SDS011;72604;40.088;18.346;2023-09-19T06:52:01;20.10;;;11.65;;
50872;SDS011;72604;40.088;18.346;2023-09-19T06:55:04;12.90;;;9.05;;
50872;SDS011;72604;40.088;18.346;2023-09-19T06:58:07;20.45;;;10.90;;
50872;SDS011;72604;40.088;18.346;2023-09-19T07:01:09;21.63;;;15.50;;
50872;SDS011;72604;40.088;18.346;2023-09-19T07:04:11;19.00;;;13.48;;
50872;SDS011;72604;40.088;18.346;2023-09-19T07:07:15;16.58;;;8.95;;
50872;SDS011;72604;40.088;18.346;2023-09-19T07:10:16;18.65;;;7.93;;
50872;SDS011;72604;40.088;18.346;2023-09-19T07:13:19;15.05;;;6.97;;
50872;SDS011;72604;40.088;18.346;2023-09-19T07:16:22;17.60;;;7.40;;
50872;SDS011;72604;40.088;18.346;2023-09-19T07:19:31;14.18;;;9.55;;
50872;SDS011;72604;40.088;18.346;2023-09-19T07:22:33;17.50;;;5.22;;
50872;SDS011;72604;40.088;18.346;2023-09-19T07:25:35;14.60;;;4.82;;
50872;SDS011;72604;40.088;18.346;2023-09-19T07:28:37;19.25;;;6.10;;
50872;SDS011;72604;40.088;18.346;2023-09-19T07:31:39;18.23;;;6.05;;
50872;SDS011;72604;40.088;18.346;2023-09-19T07:34:41;20.25;;;6.13;;
50872;SDS011;72604;40.088;18.346;2023-09-19T07:37:43;19.17;;;6.45;;
50872;SDS011;72604;40.088;18.346;2023-09-19T07:40:45;25.92;;;8.25;;
50872;SDS011;72604;40.088;18.346;2023-09-19T07:43:47;23.02;;;8.32;;
50872;SDS011;72604;40.088;18.346;2023-09-19T07:46:49;17.23;;;7.00;;
50872;SDS011;72604;40.088;18.346;2023-09-19T07:49:52;18.23;;;6.63;;
50872;SDS011;72604;40.088;18.346;2023-09-19T07:52:55;16.00;;;6.38;;
50872;SDS011;72604;40.088;18.346;2023-09-19T07:56:04;23.50;;;6.40;;
50872;SDS011;72604;40.088;18.346;2023-09-19T07:59:06;20.45;;;7.32;;
50872;SDS011;72604;40.088;18.346;2023-09-19T08:02:08;21.95;;;7.78;;
50872;SDS011;72604;40.088;18.346;2023-09-19T08:05:17;18.80;;;6.78;;
50872;SDS011;72604;40.088;18.346;2023-09-19T08:08:19;19.23;;;7.95;;
50872;SDS011;72604;40.088;18.346;2023-09-19T08:11:23;23.08;;;8.77;;
50872;SDS011;72604;40.088;18.346;2023-09-19T08:14:26;21.63;;;7.55;;
50872;SDS011;72604;40.088;18.346;2023-09-19T08:17:28;13.05;;;7.95;;
50872;SDS011;72604;40.088;18.346;2023-09-19T08:20:30;18.10;;;9.02;;
50872;SDS011;72604;40.088;18.346;2023-09-19T08:23:33;17.08;;;10.15;;
50872;SDS011;72604;40.088;18.346;2023-09-19T08:26:34;21.33;;;10.27;;
50872;SDS011;72604;40.088;18.346;2023-09-19T08:29:39;18.05;;;10.15;;
50872;SDS011;72604;40.088;18.346;2023-09-19T08:32:41;16.15;;;9.25;;
50872;SDS011;72604;40.088;18.346;2023-09-19T08:35:44;15.63;;;8.13;;
50872;SDS011;72604;40.088;18.346;2023-09-19T08:38:47;20.60;;;8.35;;
50872;SDS011;72604;40.088;18.346;2023-09-19T08:41:58;16.63;;;8.55;;
50872;SDS011;72604;40.088;18.346;2023-09-19T08:45:00;14.68;;;8.40;;
50872;SDS011;72604;40.088;18.346;2023-09-19T08:48:11;15.10;;;7.07;;
50872;SDS011;72604;40.088;18.346;2023-09-19T08:51:17;20.00;;;7.50;;
50872;SDS011;72604;40.088;18.346;2023-09-19T08:54:24;16.40;;;7.35;;
50872;SDS011;72604;40.088;18.346;2023-09-19T08:57:34;14.02;;;6.85;;
50872;SDS011;72604;40.088;18.346;2023-09-19T09:00:39;14.57;;;6.35;;
50872;SDS011;72604;40.088;18.346;2023-09-19T09:03:44;17.88;;;7.00;;
50872;SDS011;72604;40.088;18.346;2023-09-19T09:06:50;13.52;;;6.40;;
50872;SDS011;72604;40.088;18.346;2023-09-19T09:09:54;13.57;;;6.93;;
50872;SDS011;72604;40.088;18.346;2023-09-19T09:12:57;15.40;;;7.03;;
50872;SDS011;72604;40.088;18.346;2023-09-19T09:16:00;13.57;;;6.23;;
50872;SDS011;72604;40.088;18.346;2023-09-19T09:19:02;15.18;;;6.53;;
50872;SDS011;72604;40.088;18.346;2023-09-19T09:22:07;15.90;;;6.32;;
50872;SDS011;72604;40.088;18.346;2023-09-19T09:25:10;16.67;;;7.10;;
50872;SDS011;72604;40.088;18.346;2023-09-19T09:28:11;17.20;;;6.40;;
50872;SDS011;72604;40.088;18.346;2023-09-19T09:31:24;13.18;;;6.10;;
50872;SDS011;72604;40.088;18.346;2023-09-19T09:34:32;12.68;;;6.20;;
50872;SDS011;72604;40.088;18.346;2023-09-19T09:37:35;13.65;;;6.15;;
50872;SDS011;72604;40.088;18.346;2023-09-19T09:40:47;15.00;;;6.38;;
50872;SDS011;72604;40.088;18.346;2023-09-19T09:43:50;12.45;;;6.22;;
50872;SDS011;72604;40.088;18.346;2023-09-19T09:46:53;10.85;;;6.05;;
50872;SDS011;72604;40.088;18.346;2023-09-19T09:49:55;15.15;;;6.35;;
50872;SDS011;72604;40.088;18.346;2023-09-19T09:53:24;13.90;;;6.50;;
50872;SDS011;72604;40.088;18.346;2023-09-19T09:56:35;12.70;;;6.15;;
50872;SDS011;72604;40.088;18.346;2023-09-19T09:59:53;14.30;;;5.93;;
50872;SDS011;72604;40.088;18.346;2023-09-19T10:02:57;12.68;;;5.38;;
50872;SDS011;72604;40.088;18.346;2023-09-19T10:05:59;11.98;;;5.55;;
50872;SDS011;72604;40.088;18.346;2023-09-19T10:09:05;14.27;;;5.82;;
50872;SDS011;72604;40.088;18.346;2023-09-19T10:12:18;17.20;;;6.18;;
50872;SDS011;72604;40.088;18.346;2023-09-19T10:15:20;14.00;;;6.00;;
50872;SDS011;72604;40.088;18.346;2023-09-19T10:18:23;17.02;;;5.72;;
50872;SDS011;72604;40.088;18.346;2023-09-19T10:21:25;13.68;;;6.00;;
50872;SDS011;72604;40.088;18.346;2023-09-19T10:24:32;12.45;;;5.50;;
50872;SDS011;72604;40.088;18.346;2023-09-19T10:27:36;15.80;;;5.95;;
50872;SDS011;72604;40.088;18.346;2023-09-19T10:33:48;13.07;;;5.30;;
50872;SDS011;72604;40.088;18.346;2023-09-19T10:36:51;12.80;;;5.88;;
50872;SDS011;72604;40.088;18.346;2023-09-19T10:39:54;16.20;;;5.55;;
50872;SDS011;72604;40.088;18.346;2023-09-19T10:43:04;13.27;;;5.47;;
50872;SDS011;72604;40.088;18.346;2023-09-19T10:46:09;14.85;;;5.78;;
50872;SDS011;72604;40.088;18.346;2023-09-19T10:49:13;17.48;;;6.20;;
50872;SDS011;72604;40.088;18.346;2023-09-19T10:52:16;13.95;;;5.57;;
50872;SDS011;72604;40.088;18.346;2023-09-19T10:55:21;13.90;;;5.50;;
50872;SDS011;72604;40.088;18.346;2023-09-19T10:58:27;16.50;;;6.13;;
50872;SDS011;72604;40.088;18.346;2023-09-19T11:04:53;20.00;;;6.25;;
50872;SDS011;72604;40.088;18.346;2023-09-19T11:07:59;12.80;;;5.72;;
50872;SDS011;72604;40.088;18.346;2023-09-19T11:11:06;17.90;;;5.75;;
50872;SDS011;72604;40.088;18.346;2023-09-19T11:14:29;18.30;;;6.30;;
50872;SDS011;72604;40.088;18.346;2023-09-19T11:17:32;20.75;;;5.45;;
50872;SDS011;72604;40.088;18.346;2023-09-19T11:20:33;18.45;;;5.65;;
50872;SDS011;72604;40.088;18.346;2023-09-19T11:23:46;18.60;;;6.38;;
50872;SDS011;72604;40.088;18.346;2023-09-19T11:27:10;14.50;;;5.85;;
50872;SDS011;72604;40.088;18.346;2023-09-19T11:30:28;14.00;;;6.15;;
50872;SDS011;72604;40.088;18.346;2023-09-19T11:33:31;15.10;;;5.80;;
50872;SDS011;72604;40.088;18.346;2023-09-19T11:36:39;18.80;;;6.30;;
50872;SDS011;72604;40.088;18.346;2023-09-19T11:43:17;16.50;;;5.80;;
50872;SDS011;72604;40.088;18.346;2023-09-19T11:46:25;13.90;;;5.70;;
50872;SDS011;72604;40.088;18.346;2023-09-19T11:49:29;14.50;;;5.82;;
50872;SDS011;72604;40.088;18.346;2023-09-19T11:52:34;14.70;;;5.93;;
50872;SDS011;72604;40.088;18.346;2023-09-19T11:55:39;12.45;;;5.53;;
50872;SDS011;72604;40.088;18.346;2023-09-19T11:58:43;13.87;;;5.93;;
50872;SDS011;72604;40.088;18.346;2023-09-19T12:01:50;20.15;;;6.38;;
50872;SDS011;72604;40.088;18.346;2023-09-19T12:04:56;19.20;;;5.65;;
50872;SDS011;72604;40.088;18.346;2023-09-19T12:07:58;12.75;;;5.65;;
50872;SDS011;72604;40.088;18.346;2023-09-19T12:11:00;10.80;;;5.32;;
50872;SDS011;72604;40.088;18.346;2023-09-19T12:14:02;12.95;;;5.72;;
50872;SDS011;72604;40.088;18.346;2023-09-19T12:17:05;16.77;;;6.22;;
50872;SDS011;72604;40.088;18.346;2023-09-19T12:20:07;14.73;;;5.97;;
50872;SDS011;72604;40.088;18.346;2023-09-19T12:23:15;15.43;;;6.03;;
50872;SDS011;72604;40.088;18.346;2023-09-19T12:26:17;13.57;;;5.68;;
50872;SDS011;72604;40.088;18.346;2023-09-19T12:29:20;15.40;;;6.22;;
50872;SDS011;72604;40.088;18.346;2023-09-19T12:32:35;11.95;;;6.60;;
50872;SDS011;72604;40.088;18.346;2023-09-19T12:35:37;17.83;;;6.47;;
50872;SDS011;72604;40.088;18.346;2023-09-19T12:38:41;12.20;;;5.20;;
50872;SDS011;72604;40.088;18.346;2023-09-19T12:41:49;12.48;;;5.32;;
50872;SDS011;72604;40.088;18.346;2023-09-19T12:44:52;12.07;;;4.88;;
50872;SDS011;72604;40.088;18.346;2023-09-19T12:51:18;12.95;;;5.45;;
50872;SDS011;72604;40.088;18.346;2023-09-19T12:54:24;12.73;;;5.70;;
50872;SDS011;72604;40.088;18.346;2023-09-19T12:57:27;12.70;;;6.38;;
50872;SDS011;72604;40.088;18.346;2023-09-19T13:00:32;14.02;;;6.47;;
50872;SDS011;72604;40.088;18.346;2023-09-19T13:03:36;16.13;;;6.65;;
50872;SDS011;72604;40.088;18.346;2023-09-19T13:06:41;13.48;;;5.68;;
50872;SDS011;72604;40.088;18.346;2023-09-19T13:10:02;13.10;;;5.70;;
50872;SDS011;72604;40.088;18.346;2023-09-19T13:13:22;12.68;;;6.03;;
50872;SDS011;72604;40.088;18.346;2023-09-19T13:16:24;10.82;;;5.50;;
50872;SDS011;72604;40.088;18.346;2023-09-19T13:22:44;13.57;;;5.25;;
50872;SDS011;72604;40.088;18.346;2023-09-19T13:25:51;14.20;;;5.35;;
50872;SDS011;72604;40.088;18.346;2023-09-19T13:28:53;14.68;;;5.82;;
50872;SDS011;72604;40.088;18.346;2023-09-19T13:31:55;14.18;;;5.63;;
50872;SDS011;72604;40.088;18.346;2023-09-19T13:34:57;12.25;;;5.25;;
50872;SDS011;72604;40.088;18.346;2023-09-19T13:37:59;14.40;;;5.18;;
50872;SDS011;72604;40.088;18.346;2023-09-19T13:41:02;13.35;;;5.45;;
50872;SDS011;72604;40.088;18.346;2023-09-19T13:44:04;14.95;;;5.60;;
50872;SDS011;72604;40.088;18.346;2023-09-19T13:47:06;11.18;;;5.13;;
50872;SDS011;72604;40.088;18.346;2023-09-19T13:50:11;11.80;;;5.25;;
50872;SDS011;72604;40.088;18.346;2023-09-19T13:53:13;13.35;;;5.38;;
50872;SDS011;72604;40.088;18.346;2023-09-19T13:56:15;10.45;;;4.72;;
50872;SDS011;72604;40.088;18.346;2023-09-19T13:59:17;14.63;;;5.40;;
50872;SDS011;72604;40.088;18.346;2023-09-19T14:02:18;14.50;;;5.20;;
50872;SDS011;72604;40.088;18.346;2023-09-19T14:05:20;13.18;;;5.40;;
50872;SDS011;72604;40.088;18.346;2023-09-19T14:08:23;14.27;;;5.38;;
50872;SDS011;72604;40.088;18.346;2023-09-19T14:11:25;15.18;;;5.97;;
50872;SDS011;72604;40.088;18.346;2023-09-19T14:14:30;11.05;;;5.32;;
50872;SDS011;72604;40.088;18.346;2023-09-19T14:17:32;13.27;;;5.72;;
50872;SDS011;72604;40.088;18.346;2023-09-19T14:20:37;13.63;;;5.50;;
50872;SDS011;72604;40.088;18.346;2023-09-19T14:23:39;13.48;;;5.55;;
50872;SDS011;72604;40.088;18.346;2023-09-19T14:26:41;13.60;;;6.38;;
50872;SDS011;72604;40.088;18.346;2023-09-19T14:29:42;14.95;;;6.35;;
50872;SDS011;72604;40.088;18.346;2023-09-19T14:32:44;12.10;;;5.70;;
50872;SDS011;72604;40.088;18.346;2023-09-19T14:35:46;13.20;;;6.15;;
50872;SDS011;72604;40.088;18.346;2023-09-19T14:38:51;14.40;;;5.72;;
50872;SDS011;72604;40.088;18.346;2023-09-19T14:41:55;9.82;;;6.03;;
50872;SDS011;72604;40.088;18.346;2023-09-19T14:44:57;11.88;;;6.07;;
50872;SDS011;72604;40.088;18.346;2023-09-19T14:47:59;11.85;;;5.68;;
50872;SDS011;72604;40.088;18.346;2023-09-19T14:51:01;15.65;;;6.40;;
50872;SDS011;72604;40.088;18.346;2023-09-19T14:54:04;13.10;;;5.60;;
50872;SDS011;72604;40.088;18.346;2023-09-19T14:57:06;13.27;;;6.10;;
50872;SDS011;72604;40.088;18.346;2023-09-19T15:00:11;13.82;;;6.35;;
50872;SDS011;72604;40.088;18.346;2023-09-19T15:03:13;9.33;;;4.83;;
50872;SDS011;72604;40.088;18.346;2023-09-19T15:06:16;16.83;;;5.43;;
50872;SDS011;72604;40.088;18.346;2023-09-19T15:09:22;14.25;;;5.80;;
50872;SDS011;72604;40.088;18.346;2023-09-19T15:12:27;13.05;;;5.20;;
50872;SDS011;72604;40.088;18.346;2023-09-19T15:15:31;12.70;;;5.63;;
50872;SDS011;72604;40.088;18.346;2023-09-19T15:18:33;17.25;;;5.95;;
50872;SDS011;72604;40.088;18.346;2023-09-19T15:21:36;12.10;;;5.20;;
50872;SDS011;72604;40.088;18.346;2023-09-19T15:24:39;11.55;;;5.07;;
50872;SDS011;72604;40.088;18.346;2023-09-19T15:27:40;12.85;;;5.60;;
50872;SDS011;72604;40.088;18.346;2023-09-19T15:30:43;14.43;;;6.53;;
50872;SDS011;72604;40.088;18.346;2023-09-19T15:33:45;15.88;;;6.57;;
50872;SDS011;72604;40.088;18.346;2023-09-19T15:36:47;12.52;;;6.25;;
50872;SDS011;72604;40.088;18.346;2023-09-19T15:39:49;15.05;;;6.25;;
50872;SDS011;72604;40.088;18.346;2023-09-19T15:42:51;11.88;;;5.40;;
50872;SDS011;72604;40.088;18.346;2023-09-19T15:45:53;12.93;;;5.55;;
50872;SDS011;72604;40.088;18.346;2023-09-19T15:48:55;14.07;;;5.68;;
50872;SDS011;72604;40.088;18.346;2023-09-19T15:51:57;15.68;;;6.38;;
50872;SDS011;72604;40.088;18.346;2023-09-19T15:54:59;10.98;;;5.75;;
50872;SDS011;72604;40.088;18.346;2023-09-19T15:58:00;17.75;;;6.47;;
50872;SDS011;72604;40.088;18.346;2023-09-19T16:01:05;14.80;;;6.22;;
50872;SDS011;72604;40.088;18.346;2023-09-19T16:04:10;10.95;;;6.65;;
50872;SDS011;72604;40.088;18.346;2023-09-19T16:07:13;22.30;;;7.47;;
50872;SDS011;72604;40.088;18.346;2023-09-19T16:10:17;15.73;;;6.90;;
50872;SDS011;72604;40.088;18.346;2023-09-19T16:13:19;14.48;;;6.57;;
50872;SDS011;72604;40.088;18.346;2023-09-19T16:16:21;14.25;;;6.30;;
50872;SDS011;72604;40.088;18.346;2023-09-19T16:19:24;13.45;;;6.15;;
50872;SDS011;72604;40.088;18.346;2023-09-19T16:22:26;14.32;;;6.68;;
50872;SDS011;72604;40.088;18.346;2023-09-19T16:25:28;16.38;;;7.25;;
50872;SDS011;72604;40.088;18.346;2023-09-19T16:28:31;29.98;;;8.38;;
50872;SDS011;72604;40.088;18.346;2023-09-19T16:31:33;16.00;;;7.50;;
50872;SDS011;72604;40.088;18.346;2023-09-19T16:34:35;10.90;;;6.97;;
50872;SDS011;72604;40.088;18.346;2023-09-19T16:37:37;15.30;;;7.57;;
50872;SDS011;72604;40.088;18.346;2023-09-19T16:40:39;14.20;;;8.35;;
50872;SDS011;72604;40.088;18.346;2023-09-19T16:43:43;12.33;;;7.43;;
50872;SDS011;72604;40.088;18.346;2023-09-19T16:46:45;13.55;;;6.95;;
50872;SDS011;72604;40.088;18.346;2023-09-19T16:49:47;13.98;;;7.60;;
50872;SDS011;72604;40.088;18.346;2023-09-19T16:52:49;12.73;;;6.55;;
50872;SDS011;72604;40.088;18.346;2023-09-19T16:55:51;12.98;;;7.43;;
50872;SDS011;72604;40.088;18.346;2023-09-19T16:58:53;17.10;;;7.25;;
50872;SDS011;72604;40.088;18.346;2023-09-19T17:01:55;17.25;;;7.20;;
50872;SDS011;72604;40.088;18.346;2023-09-19T17:04:58;13.57;;;7.22;;
50872;SDS011;72604;40.088;18.346;2023-09-19T17:08:01;15.18;;;7.32;;
50872;SDS011;72604;40.088;18.346;2023-09-19T17:11:03;15.50;;;7.32;;
50872;SDS011;72604;40.088;18.346;2023-09-19T17:14:06;15.82;;;7.40;;
50872;SDS011;72604;40.088;18.346;2023-09-19T17:17:11;16.48;;;7.93;;
50872;SDS011;72604;40.088;18.346;2023-09-19T17:20:13;18.77;;;8.23;;
50872;SDS011;72604;40.088;18.346;2023-09-19T17:23:16;15.25;;;7.20;;
50872;SDS011;72604;40.088;18.346;2023-09-19T17:26:19;18.35;;;8.70;;
50872;SDS011;72604;40.088;18.346;2023-09-19T17:29:25;14.95;;;6.47;;
50872;SDS011;72604;40.088;18.346;2023-09-19T17:32:28;16.27;;;6.50;;
50872;SDS011;72604;40.088;18.346;2023-09-19T17:35:31;14.23;;;6.72;;
50872;SDS011;72604;40.088;18.346;2023-09-19T17:38:34;11.68;;;7.43;;
50872;SDS011;72604;40.088;18.346;2023-09-19T17:41:36;11.45;;;6.90;;
50872;SDS011;72604;40.088;18.346;2023-09-19T17:44:40;17.00;;;9.07;;
50872;SDS011;72604;40.088;18.346;2023-09-19T17:47:43;15.43;;;8.50;;
50872;SDS011;72604;40.088;18.346;2023-09-19T17:50:45;16.02;;;9.65;;
50872;SDS011;72604;40.088;18.346;2023-09-19T17:53:49;20.15;;;9.93;;
50872;SDS011;72604;40.088;18.346;2023-09-19T17:56:52;15.18;;;9.93;;
50872;SDS011;72604;40.088;18.346;2023-09-19T17:59:56;17.57;;;10.17;;
50872;SDS011;72604;40.088;18.346;2023-09-19T18:03:01;15.93;;;9.98;;
50872;SDS011;72604;40.088;18.346;2023-09-19T18:06:05;20.13;;;9.98;;
50872;SDS011;72604;40.088;18.346;2023-09-19T18:09:08;15.15;;;9.90;;
50872;SDS011;72604;40.088;18.346;2023-09-19T18:12:13;16.00;;;10.10;;